sensor_id;sensor_type;location;lat;lon;timestamp;P1;durP1;ratioP1;P2;durP2;ratioP2
5147;SDS011;2592;48.140;7.614;2022-12-16T00:02:07;31.07;;;23.97;;
5147;SDS011;2592;48.140;7.614;2022-12-16T00:04:34;29.40;;;24.07;;
5147;SDS011;2592;48.140;7.614;2022-12-16T00:07:00;31.93;;;23.37;;
5147;SDS011;2592;48.140;7.614;2022-12-16T00:09:28;32.13;;;23.97;;
5147;SDS011;2592;48.140;7.614;2022-12-16T00:11:54;30.57;;;23.13;;
5147;SDS011;2592;48.140;7.614;2022-12-16T00:14:20;32.23;;;23.43;;
5147;SDS011;2592;48.140;7.614;2022-12-16T00:16:47;32.77;;;24.97;;
5147;SDS011;2592;48.140;7.614;2022-12-16T00:19:13;35.23;;;26.23;;
5147;SDS011;2592;48.140;7.614;2022-12-16T00:21:40;37.03;;;27.10;;
5147;SDS011;2592;48.140;7.614;2022-12-16T00:24:06;36.33;;;27.43;;
5147;SDS011;2592;48.140;7.614;2022-12-16T00:26:34;36.13;;;26.87;;
5147;SDS011;2592;48.140;7.614;2022-12-16T00:29:00;37.43;;;28.27;;
5147;SDS011;2592;48.140;7.614;2022-12-16T00:31:29;31.50;;;24.17;;
5147;SDS011;2592;48.140;7.614;2022-12-16T00:33:55;33.77;;;25.20;;
5147;SDS011;2592;48.140;7.614;2022-12-16T00:36:22;32.63;;;25.83;;
5147;SDS011;2592;48.140;7.614;2022-12-16T00:38:50;29.70;;;23.47;;
5147;SDS011;2592;48.140;7.614;2022-12-16T00:41:16;32.70;;;25.30;;
5147;SDS011;2592;48.140;7.614;2022-12-16T00:43:44;26.97;;;21.97;;
5147;SDS011;2592;48.140;7.614;2022-12-16T00:46:10;30.70;;;24.17;;
5147;SDS011;2592;48.140;7.614;2022-12-16T00:48:37;33.13;;;23.00;;
5147;SDS011;2592;48.140;7.614;2022-12-16T00:51:03;33.07;;;23.60;;
5147;SDS011;2592;48.140;7.614;2022-12-16T00:53:30;30.73;;;22.63;;
5147;SDS011;2592;48.140;7.614;2022-12-16T00:56:03;33.50;;;23.30;;
5147;SDS011;2592;48.140;7.614;2022-12-16T00:58:29;28.73;;;22.23;;
5147;SDS011;2592;48.140;7.614;2022-12-16T01:00:57;28.60;;;22.80;;
5147;SDS011;2592;48.140;7.614;2022-12-16T01:03:23;31.53;;;24.37;;
5147;SDS011;2592;48.140;7.614;2022-12-16T01:05:50;29.63;;;23.10;;
5147;SDS011;2592;48.140;7.614;2022-12-16T01:08:16;29.90;;;23.00;;
5147;SDS011;2592;48.140;7.614;2022-12-16T01:10:48;31.37;;;24.57;;
5147;SDS011;2592;48.140;7.614;2022-12-16T01:13:14;27.80;;;23.20;;
5147;SDS011;2592;48.140;7.614;2022-12-16T01:15:41;30.17;;;22.27;;
5147;SDS011;2592;48.140;7.614;2022-12-16T01:18:09;29.27;;;21.90;;
5147;SDS011;2592;48.140;7.614;2022-12-16T01:20:36;26.50;;;20.80;;
5147;SDS011;2592;48.140;7.614;2022-12-16T01:23:02;26.77;;;21.10;;
5147;SDS011;2592;48.140;7.614;2022-12-16T01:25:29;27.83;;;20.40;;
5147;SDS011;2592;48.140;7.614;2022-12-16T01:27:55;27.03;;;20.20;;
5147;SDS011;2592;48.140;7.614;2022-12-16T01:30:22;26.50;;;21.37;;
5147;SDS011;2592;48.140;7.614;2022-12-16T01:32:49;27.30;;;20.90;;
5147;SDS011;2592;48.140;7.614;2022-12-16T01:35:17;28.43;;;20.97;;
5147;SDS011;2592;48.140;7.614;2022-12-16T01:37:43;28.40;;;20.43;;
5147;SDS011;2592;48.140;7.614;2022-12-16T01:40:12;27.33;;;21.30;;
5147;SDS011;2592;48.140;7.614;2022-12-16T01:42:42;26.40;;;21.70;;
5147;SDS011;2592;48.140;7.614;2022-12-16T01:45:25;27.13;;;21.57;;
5147;SDS011;2592;48.140;7.614;2022-12-16T01:47:53;25.00;;;19.20;;
5147;SDS011;2592;48.140;7.614;2022-12-16T01:50:21;27.03;;;20.50;;
5147;SDS011;2592;48.140;7.614;2022-12-16T01:52:48;25.80;;;19.87;;
5147;SDS011;2592;48.140;7.614;2022-12-16T01:55:17;23.10;;;18.73;;
5147;SDS011;2592;48.140;7.614;2022-12-16T01:57:46;24.27;;;18.90;;
5147;SDS011;2592;48.140;7.614;2022-12-16T02:00:13;25.70;;;19.57;;
5147;SDS011;2592;48.140;7.614;2022-12-16T02:02:40;24.50;;;18.97;;
5147;SDS011;2592;48.140;7.614;2022-12-16T02:05:08;23.40;;;19.17;;
5147;SDS011;2592;48.140;7.614;2022-12-16T02:07:52;26.10;;;19.50;;
5147;SDS011;2592;48.140;7.614;2022-12-16T02:10:20;22.83;;;17.20;;
5147;SDS011;2592;48.140;7.614;2022-12-16T02:12:50;24.37;;;19.00;;
5147;SDS011;2592;48.140;7.614;2022-12-16T02:15:23;21.07;;;17.80;;
5147;SDS011;2592;48.140;7.614;2022-12-16T02:17:53;22.33;;;17.93;;
5147;SDS011;2592;48.140;7.614;2022-12-16T02:20:32;23.27;;;18.40;;
5147;SDS011;2592;48.140;7.614;2022-12-16T02:23:09;21.50;;;17.20;;
5147;SDS011;2592;48.140;7.614;2022-12-16T02:26:00;26.93;;;18.53;;
5147;SDS011;2592;48.140;7.614;2022-12-16T02:28:35;21.37;;;16.97;;
5147;SDS011;2592;48.140;7.614;2022-12-16T02:31:09;24.77;;;18.70;;
5147;SDS011;2592;48.140;7.614;2022-12-16T02:36:29;20.50;;;16.67;;
5147;SDS011;2592;48.140;7.614;2022-12-16T02:38:59;20.10;;;16.40;;
5147;SDS011;2592;48.140;7.614;2022-12-16T02:41:29;21.53;;;16.70;;
5147;SDS011;2592;48.140;7.614;2022-12-16T02:44:00;21.47;;;17.73;;
5147;SDS011;2592;48.140;7.614;2022-12-16T02:46:29;21.80;;;17.07;;
5147;SDS011;2592;48.140;7.614;2022-12-16T02:49:03;21.30;;;16.57;;
5147;SDS011;2592;48.140;7.614;2022-12-16T02:51:30;21.13;;;17.73;;
5147;SDS011;2592;48.140;7.614;2022-12-16T02:53:57;17.43;;;15.10;;
5147;SDS011;2592;48.140;7.614;2022-12-16T02:56:28;21.90;;;17.00;;
5147;SDS011;2592;48.140;7.614;2022-12-16T02:58:56;19.30;;;16.40;;
5147;SDS011;2592;48.140;7.614;2022-12-16T03:01:27;20.77;;;17.83;;
5147;SDS011;2592;48.140;7.614;2022-12-16T03:03:59;20.93;;;16.07;;
5147;SDS011;2592;48.140;7.614;2022-12-16T03:06:28;22.80;;;17.10;;
5147;SDS011;2592;48.140;7.614;2022-12-16T03:08:56;21.57;;;17.50;;
5147;SDS011;2592;48.140;7.614;2022-12-16T03:11:24;20.33;;;16.27;;
5147;SDS011;2592;48.140;7.614;2022-12-16T03:13:52;24.73;;;18.80;;
5147;SDS011;2592;48.140;7.614;2022-12-16T03:16:20;20.23;;;16.30;;
5147;SDS011;2592;48.140;7.614;2022-12-16T03:18:48;23.00;;;16.67;;
5147;SDS011;2592;48.140;7.614;2022-12-16T03:21:17;20.30;;;17.13;;
5147;SDS011;2592;48.140;7.614;2022-12-16T03:23:47;21.03;;;16.50;;
5147;SDS011;2592;48.140;7.614;2022-12-16T03:26:18;19.83;;;16.47;;
5147;SDS011;2592;48.140;7.614;2022-12-16T03:28:47;20.97;;;17.40;;
5147;SDS011;2592;48.140;7.614;2022-12-16T03:31:21;21.53;;;17.50;;
5147;SDS011;2592;48.140;7.614;2022-12-16T03:33:48;22.43;;;17.83;;
5147;SDS011;2592;48.140;7.614;2022-12-16T03:36:20;20.73;;;17.37;;
5147;SDS011;2592;48.140;7.614;2022-12-16T03:38:47;22.80;;;18.37;;
5147;SDS011;2592;48.140;7.614;2022-12-16T03:41:13;19.63;;;17.00;;
5147;SDS011;2592;48.140;7.614;2022-12-16T03:43:41;20.70;;;17.03;;
5147;SDS011;2592;48.140;7.614;2022-12-16T03:46:08;19.13;;;16.03;;
5147;SDS011;2592;48.140;7.614;2022-12-16T03:48:34;21.30;;;17.80;;
5147;SDS011;2592;48.140;7.614;2022-12-16T03:51:01;20.47;;;16.73;;
5147;SDS011;2592;48.140;7.614;2022-12-16T03:53:29;22.17;;;17.40;;
5147;SDS011;2592;48.140;7.614;2022-12-16T03:55:55;20.90;;;17.00;;
5147;SDS011;2592;48.140;7.614;2022-12-16T03:58:21;20.50;;;16.80;;
5147;SDS011;2592;48.140;7.614;2022-12-16T04:00:48;21.10;;;16.13;;
5147;SDS011;2592;48.140;7.614;2022-12-16T04:03:14;26.87;;;20.70;;
5147;SDS011;2592;48.140;7.614;2022-12-16T04:05:41;25.37;;;20.77;;
5147;SDS011;2592;48.140;7.614;2022-12-16T04:08:07;27.00;;;17.77;;
5147;SDS011;2592;48.140;7.614;2022-12-16T04:10:35;21.80;;;18.20;;
5147;SDS011;2592;48.140;7.614;2022-12-16T04:13:18;22.00;;;17.67;;
5147;SDS011;2592;48.140;7.614;2022-12-16T04:16:03;25.93;;;19.50;;
5147;SDS011;2592;48.140;7.614;2022-12-16T04:18:46;25.77;;;19.40;;
5147;SDS011;2592;48.140;7.614;2022-12-16T04:21:30;22.80;;;18.53;;
5147;SDS011;2592;48.140;7.614;2022-12-16T04:24:14;24.70;;;19.13;;
5147;SDS011;2592;48.140;7.614;2022-12-16T04:26:46;24.90;;;19.80;;
5147;SDS011;2592;48.140;7.614;2022-12-16T04:29:30;23.97;;;19.10;;
5147;SDS011;2592;48.140;7.614;2022-12-16T04:31:57;24.43;;;18.40;;
5147;SDS011;2592;48.140;7.614;2022-12-16T04:34:23;21.97;;;17.63;;
5147;SDS011;2592;48.140;7.614;2022-12-16T04:36:53;24.73;;;18.97;;
5147;SDS011;2592;48.140;7.614;2022-12-16T04:39:37;21.90;;;17.80;;
5147;SDS011;2592;48.140;7.614;2022-12-16T04:42:22;25.90;;;19.23;;
5147;SDS011;2592;48.140;7.614;2022-12-16T04:45:06;22.63;;;17.33;;
5147;SDS011;2592;48.140;7.614;2022-12-16T04:47:51;26.80;;;19.73;;
5147;SDS011;2592;48.140;7.614;2022-12-16T04:50:35;25.20;;;19.93;;
5147;SDS011;2592;48.140;7.614;2022-12-16T04:53:19;26.07;;;18.87;;
5147;SDS011;2592;48.140;7.614;2022-12-16T04:56:03;25.50;;;19.03;;
5147;SDS011;2592;48.140;7.614;2022-12-16T04:58:48;19.93;;;16.80;;
5147;SDS011;2592;48.140;7.614;2022-12-16T05:01:32;27.13;;;20.90;;
5147;SDS011;2592;48.140;7.614;2022-12-16T05:04:15;21.10;;;17.43;;
5147;SDS011;2592;48.140;7.614;2022-12-16T05:06:59;26.03;;;18.73;;
5147;SDS011;2592;48.140;7.614;2022-12-16T05:09:43;21.20;;;17.90;;
5147;SDS011;2592;48.140;7.614;2022-12-16T05:12:27;23.83;;;17.27;;
5147;SDS011;2592;48.140;7.614;2022-12-16T05:15:12;19.23;;;15.70;;
5147;SDS011;2592;48.140;7.614;2022-12-16T05:17:56;21.63;;;17.23;;
5147;SDS011;2592;48.140;7.614;2022-12-16T05:20:40;19.20;;;16.00;;
5147;SDS011;2592;48.140;7.614;2022-12-16T05:23:38;21.37;;;17.13;;
5147;SDS011;2592;48.140;7.614;2022-12-16T05:26:22;19.63;;;16.17;;
5147;SDS011;2592;48.140;7.614;2022-12-16T05:29:06;20.67;;;16.70;;
5147;SDS011;2592;48.140;7.614;2022-12-16T05:31:51;16.60;;;13.83;;
5147;SDS011;2592;48.140;7.614;2022-12-16T05:34:35;17.80;;;14.07;;
5147;SDS011;2592;48.140;7.614;2022-12-16T05:37:19;18.40;;;14.87;;
5147;SDS011;2592;48.140;7.614;2022-12-16T05:40:03;19.77;;;15.30;;
5147;SDS011;2592;48.140;7.614;2022-12-16T05:42:47;17.20;;;13.17;;
5147;SDS011;2592;48.140;7.614;2022-12-16T05:45:31;20.77;;;16.10;;
5147;SDS011;2592;48.140;7.614;2022-12-16T05:48:16;20.20;;;14.90;;
5147;SDS011;2592;48.140;7.614;2022-12-16T05:51:00;19.00;;;13.77;;
5147;SDS011;2592;48.140;7.614;2022-12-16T05:53:44;12.73;;;10.70;;
5147;SDS011;2592;48.140;7.614;2022-12-16T05:56:28;14.50;;;11.57;;
5147;SDS011;2592;48.140;7.614;2022-12-16T05:59:12;19.73;;;13.30;;
5147;SDS011;2592;48.140;7.614;2022-12-16T06:01:56;15.03;;;11.63;;
5147;SDS011;2592;48.140;7.614;2022-12-16T06:04:37;16.93;;;13.37;;
5147;SDS011;2592;48.140;7.614;2022-12-16T06:07:21;12.00;;;10.50;;
5147;SDS011;2592;48.140;7.614;2022-12-16T06:10:05;31.20;;;24.43;;
5147;SDS011;2592;48.140;7.614;2022-12-16T06:12:49;28.57;;;20.80;;
5147;SDS011;2592;48.140;7.614;2022-12-16T06:15:33;20.53;;;16.00;;
5147;SDS011;2592;48.140;7.614;2022-12-16T06:18:17;16.17;;;13.07;;
5147;SDS011;2592;48.140;7.614;2022-12-16T06:21:02;15.43;;;12.50;;
5147;SDS011;2592;48.140;7.614;2022-12-16T06:24:00;12.10;;;10.80;;
5147;SDS011;2592;48.140;7.614;2022-12-16T06:26:44;12.30;;;10.60;;
5147;SDS011;2592;48.140;7.614;2022-12-16T06:29:27;15.67;;;10.80;;
5147;SDS011;2592;48.140;7.614;2022-12-16T06:32:11;14.40;;;10.40;;
5147;SDS011;2592;48.140;7.614;2022-12-16T06:34:57;10.90;;;8.87;;
5147;SDS011;2592;48.140;7.614;2022-12-16T06:37:42;11.10;;;8.97;;
5147;SDS011;2592;48.140;7.614;2022-12-16T06:40:29;12.40;;;10.40;;
5147;SDS011;2592;48.140;7.614;2022-12-16T06:43:13;11.30;;;9.83;;
5147;SDS011;2592;48.140;7.614;2022-12-16T06:45:57;10.47;;;8.40;;
5147;SDS011;2592;48.140;7.614;2022-12-16T06:48:40;17.40;;;9.70;;
5147;SDS011;2592;48.140;7.614;2022-12-16T06:51:24;11.00;;;9.10;;
5147;SDS011;2592;48.140;7.614;2022-12-16T06:54:10;10.30;;;8.70;;
5147;SDS011;2592;48.140;7.614;2022-12-16T06:56:53;11.90;;;9.70;;
5147;SDS011;2592;48.140;7.614;2022-12-16T06:59:37;14.30;;;11.30;;
5147;SDS011;2592;48.140;7.614;2022-12-16T07:02:22;15.07;;;10.90;;
5147;SDS011;2592;48.140;7.614;2022-12-16T07:05:06;25.37;;;20.10;;
5147;SDS011;2592;48.140;7.614;2022-12-16T07:07:50;13.00;;;10.77;;
5147;SDS011;2592;48.140;7.614;2022-12-16T07:10:35;13.00;;;10.53;;
5147;SDS011;2592;48.140;7.614;2022-12-16T07:13:19;11.73;;;10.13;;
5147;SDS011;2592;48.140;7.614;2022-12-16T07:16:03;13.57;;;10.23;;
5147;SDS011;2592;48.140;7.614;2022-12-16T07:18:47;13.73;;;10.73;;
5147;SDS011;2592;48.140;7.614;2022-12-16T07:21:39;17.90;;;13.40;;
5147;SDS011;2592;48.140;7.614;2022-12-16T07:24:34;13.07;;;10.80;;
5147;SDS011;2592;48.140;7.614;2022-12-16T07:27:19;15.57;;;10.67;;
5147;SDS011;2592;48.140;7.614;2022-12-16T07:30:14;14.10;;;11.87;;
5147;SDS011;2592;48.140;7.614;2022-12-16T07:32:58;14.17;;;11.70;;
5147;SDS011;2592;48.140;7.614;2022-12-16T07:35:42;15.20;;;10.90;;
5147;SDS011;2592;48.140;7.614;2022-12-16T07:38:26;13.00;;;10.10;;
5147;SDS011;2592;48.140;7.614;2022-12-16T07:41:10;11.80;;;9.30;;
5147;SDS011;2592;48.140;7.614;2022-12-16T07:43:55;11.67;;;9.77;;
5147;SDS011;2592;48.140;7.614;2022-12-16T07:46:39;9.57;;;8.57;;
5147;SDS011;2592;48.140;7.614;2022-12-16T07:49:23;10.07;;;8.80;;
5147;SDS011;2592;48.140;7.614;2022-12-16T07:52:07;12.93;;;9.73;;
5147;SDS011;2592;48.140;7.614;2022-12-16T07:54:51;10.77;;;9.10;;
5147;SDS011;2592;48.140;7.614;2022-12-16T07:57:35;15.13;;;11.90;;
5147;SDS011;2592;48.140;7.614;2022-12-16T08:00:20;21.20;;;18.03;;
5147;SDS011;2592;48.140;7.614;2022-12-16T08:03:04;16.40;;;14.70;;
5147;SDS011;2592;48.140;7.614;2022-12-16T08:05:48;18.33;;;15.60;;
5147;SDS011;2592;48.140;7.614;2022-12-16T08:08:32;23.90;;;18.50;;
5147;SDS011;2592;48.140;7.614;2022-12-16T08:11:16;14.87;;;13.23;;
5147;SDS011;2592;48.140;7.614;2022-12-16T08:14:00;16.13;;;12.93;;
5147;SDS011;2592;48.140;7.614;2022-12-16T08:16:45;17.13;;;13.70;;
5147;SDS011;2592;48.140;7.614;2022-12-16T08:19:29;16.77;;;13.87;;
5147;SDS011;2592;48.140;7.614;2022-12-16T08:22:13;16.67;;;11.97;;
5147;SDS011;2592;48.140;7.614;2022-12-16T08:24:57;28.80;;;12.73;;
5147;SDS011;2592;48.140;7.614;2022-12-16T08:27:42;17.53;;;13.90;;
5147;SDS011;2592;48.140;7.614;2022-12-16T08:30:26;14.60;;;12.70;;
5147;SDS011;2592;48.140;7.614;2022-12-16T08:33:11;13.20;;;10.03;;
5147;SDS011;2592;48.140;7.614;2022-12-16T08:35:57;13.40;;;10.27;;
5147;SDS011;2592;48.140;7.614;2022-12-16T08:38:42;11.27;;;9.60;;
5147;SDS011;2592;48.140;7.614;2022-12-16T08:41:26;12.00;;;9.53;;
5147;SDS011;2592;48.140;7.614;2022-12-16T08:44:09;12.30;;;10.60;;
5147;SDS011;2592;48.140;7.614;2022-12-16T08:46:53;12.70;;;10.63;;
5147;SDS011;2592;48.140;7.614;2022-12-16T08:49:39;11.93;;;9.63;;
5147;SDS011;2592;48.140;7.614;2022-12-16T08:52:22;17.77;;;12.57;;
5147;SDS011;2592;48.140;7.614;2022-12-16T08:55:06;28.60;;;18.77;;
5147;SDS011;2592;48.140;7.614;2022-12-16T08:57:54;36.13;;;22.90;;
5147;SDS011;2592;48.140;7.614;2022-12-16T09:00:38;27.47;;;19.13;;
5147;SDS011;2592;48.140;7.614;2022-12-16T09:03:22;15.80;;;13.60;;
5147;SDS011;2592;48.140;7.614;2022-12-16T09:06:07;12.70;;;9.50;;
5147;SDS011;2592;48.140;7.614;2022-12-16T09:08:51;11.70;;;9.07;;
5147;SDS011;2592;48.140;7.614;2022-12-16T09:11:35;12.50;;;10.10;;
5147;SDS011;2592;48.140;7.614;2022-12-16T09:14:19;11.70;;;9.87;;
5147;SDS011;2592;48.140;7.614;2022-12-16T09:17:03;16.93;;;11.33;;
5147;SDS011;2592;48.140;7.614;2022-12-16T09:19:47;38.47;;;20.93;;
5147;SDS011;2592;48.140;7.614;2022-12-16T09:22:32;26.87;;;15.67;;
5147;SDS011;2592;48.140;7.614;2022-12-16T09:25:16;13.27;;;10.50;;
5147;SDS011;2592;48.140;7.614;2022-12-16T09:28:00;15.80;;;12.77;;
5147;SDS011;2592;48.140;7.614;2022-12-16T09:30:44;15.53;;;12.33;;
5147;SDS011;2592;48.140;7.614;2022-12-16T09:33:28;15.80;;;11.20;;
5147;SDS011;2592;48.140;7.614;2022-12-16T09:36:11;17.40;;;12.37;;
5147;SDS011;2592;48.140;7.614;2022-12-16T09:38:57;14.10;;;11.37;;
5147;SDS011;2592;48.140;7.614;2022-12-16T09:41:41;12.43;;;10.10;;
5147;SDS011;2592;48.140;7.614;2022-12-16T09:44:29;18.47;;;11.13;;
5147;SDS011;2592;48.140;7.614;2022-12-16T09:47:19;14.97;;;11.23;;
5147;SDS011;2592;48.140;7.614;2022-12-16T09:50:06;12.20;;;10.40;;
5147;SDS011;2592;48.140;7.614;2022-12-16T09:52:56;16.00;;;12.30;;
5147;SDS011;2592;48.140;7.614;2022-12-16T09:55:44;15.97;;;12.80;;
5147;SDS011;2592;48.140;7.614;2022-12-16T09:58:29;15.57;;;12.37;;
5147;SDS011;2592;48.140;7.614;2022-12-16T10:01:13;11.43;;;10.23;;
5147;SDS011;2592;48.140;7.614;2022-12-16T10:03:57;16.37;;;12.03;;
5147;SDS011;2592;48.140;7.614;2022-12-16T10:06:41;14.80;;;12.37;;
5147;SDS011;2592;48.140;7.614;2022-12-16T10:09:33;14.00;;;11.67;;
5147;SDS011;2592;48.140;7.614;2022-12-16T10:12:38;16.43;;;12.93;;
5147;SDS011;2592;48.140;7.614;2022-12-16T10:15:28;15.00;;;13.17;;
5147;SDS011;2592;48.140;7.614;2022-12-16T10:18:16;17.10;;;11.67;;
5147;SDS011;2592;48.140;7.614;2022-12-16T10:21:04;22.90;;;11.37;;
5147;SDS011;2592;48.140;7.614;2022-12-16T10:23:52;16.57;;;11.77;;
5147;SDS011;2592;48.140;7.614;2022-12-16T10:26:42;17.33;;;12.17;;
5147;SDS011;2592;48.140;7.614;2022-12-16T10:29:29;18.23;;;12.50;;
5147;SDS011;2592;48.140;7.614;2022-12-16T10:32:18;12.80;;;11.20;;
5147;SDS011;2592;48.140;7.614;2022-12-16T10:35:04;16.67;;;13.00;;
5147;SDS011;2592;48.140;7.614;2022-12-16T10:37:57;18.90;;;13.30;;
5147;SDS011;2592;48.140;7.614;2022-12-16T10:40:41;14.00;;;11.70;;
5147;SDS011;2592;48.140;7.614;2022-12-16T10:43:27;18.73;;;13.40;;
5147;SDS011;2592;48.140;7.614;2022-12-16T10:46:15;12.83;;;10.40;;
5147;SDS011;2592;48.140;7.614;2022-12-16T10:49:00;14.80;;;11.80;;
5147;SDS011;2592;48.140;7.614;2022-12-16T10:51:44;14.70;;;11.23;;
5147;SDS011;2592;48.140;7.614;2022-12-16T10:54:30;16.00;;;12.27;;
5147;SDS011;2592;48.140;7.614;2022-12-16T10:57:17;15.13;;;12.83;;
5147;SDS011;2592;48.140;7.614;2022-12-16T11:00:10;13.53;;;10.87;;
5147;SDS011;2592;48.140;7.614;2022-12-16T11:02:55;20.40;;;13.10;;
5147;SDS011;2592;48.140;7.614;2022-12-16T11:05:39;18.80;;;12.60;;
5147;SDS011;2592;48.140;7.614;2022-12-16T11:08:32;15.50;;;12.40;;
5147;SDS011;2592;48.140;7.614;2022-12-16T11:11:19;17.80;;;13.23;;
5147;SDS011;2592;48.140;7.614;2022-12-16T11:17:15;15.80;;;13.33;;
5147;SDS011;2592;48.140;7.614;2022-12-16T11:20:12;17.97;;;13.43;;
5147;SDS011;2592;48.140;7.614;2022-12-16T11:23:13;23.90;;;15.40;;
5147;SDS011;2592;48.140;7.614;2022-12-16T11:26:07;17.13;;;13.30;;
5147;SDS011;2592;48.140;7.614;2022-12-16T11:29:01;17.03;;;13.47;;
5147;SDS011;2592;48.140;7.614;2022-12-16T11:31:46;20.90;;;16.70;;
5147;SDS011;2592;48.140;7.614;2022-12-16T11:34:28;18.07;;;13.60;;
5147;SDS011;2592;48.140;7.614;2022-12-16T11:37:13;16.13;;;12.83;;
5147;SDS011;2592;48.140;7.614;2022-12-16T11:39:56;16.50;;;13.60;;
5147;SDS011;2592;48.140;7.614;2022-12-16T11:42:41;18.87;;;14.47;;
5147;SDS011;2592;48.140;7.614;2022-12-16T11:45:24;18.00;;;13.47;;
5147;SDS011;2592;48.140;7.614;2022-12-16T11:48:10;23.10;;;16.73;;
5147;SDS011;2592;48.140;7.614;2022-12-16T11:51:00;23.70;;;16.30;;
5147;SDS011;2592;48.140;7.614;2022-12-16T11:53:47;19.20;;;14.37;;
5147;SDS011;2592;48.140;7.614;2022-12-16T11:56:33;24.73;;;18.73;;
5147;SDS011;2592;48.140;7.614;2022-12-16T11:59:20;22.23;;;17.43;;
5147;SDS011;2592;48.140;7.614;2022-12-16T12:02:07;23.43;;;18.97;;
5147;SDS011;2592;48.140;7.614;2022-12-16T12:04:54;32.90;;;23.83;;
5147;SDS011;2592;48.140;7.614;2022-12-16T12:07:40;22.83;;;17.47;;
5147;SDS011;2592;48.140;7.614;2022-12-16T12:10:33;21.30;;;15.10;;
5147;SDS011;2592;48.140;7.614;2022-12-16T12:13:21;28.60;;;20.97;;
5147;SDS011;2592;48.140;7.614;2022-12-16T12:16:11;22.50;;;16.63;;
5147;SDS011;2592;48.140;7.614;2022-12-16T12:18:57;21.20;;;16.73;;
5147;SDS011;2592;48.140;7.614;2022-12-16T12:21:44;21.93;;;16.57;;
5147;SDS011;2592;48.140;7.614;2022-12-16T12:24:33;22.60;;;17.17;;
5147;SDS011;2592;48.140;7.614;2022-12-16T12:27:24;25.87;;;20.80;;
5147;SDS011;2592;48.140;7.614;2022-12-16T12:30:12;20.53;;;15.80;;
5147;SDS011;2592;48.140;7.614;2022-12-16T12:33:00;26.67;;;17.93;;
5147;SDS011;2592;48.140;7.614;2022-12-16T12:35:52;22.50;;;17.73;;
5147;SDS011;2592;48.140;7.614;2022-12-16T12:38:39;21.90;;;17.20;;
5147;SDS011;2592;48.140;7.614;2022-12-16T12:41:26;26.10;;;20.20;;
5147;SDS011;2592;48.140;7.614;2022-12-16T12:44:13;25.53;;;18.27;;
5147;SDS011;2592;48.140;7.614;2022-12-16T12:47:01;26.47;;;17.63;;
5147;SDS011;2592;48.140;7.614;2022-12-16T12:50:06;20.27;;;15.77;;
5147;SDS011;2592;48.140;7.614;2022-12-16T12:52:58;21.83;;;12.70;;
5147;SDS011;2592;48.140;7.614;2022-12-16T12:55:50;16.87;;;13.00;;
5147;SDS011;2592;48.140;7.614;2022-12-16T12:58:36;20.03;;;15.07;;
5147;SDS011;2592;48.140;7.614;2022-12-16T13:01:30;21.80;;;16.07;;
5147;SDS011;2592;48.140;7.614;2022-12-16T13:04:15;23.90;;;16.20;;
5147;SDS011;2592;48.140;7.614;2022-12-16T13:07:08;17.43;;;13.50;;
5147;SDS011;2592;48.140;7.614;2022-12-16T13:10:10;20.80;;;16.40;;
5147;SDS011;2592;48.140;7.614;2022-12-16T13:13:19;20.57;;;15.40;;
5147;SDS011;2592;48.140;7.614;2022-12-16T13:16:04;23.20;;;17.57;;
5147;SDS011;2592;48.140;7.614;2022-12-16T13:18:57;20.97;;;16.23;;
5147;SDS011;2592;48.140;7.614;2022-12-16T13:22:01;22.10;;;15.47;;
5147;SDS011;2592;48.140;7.614;2022-12-16T13:24:47;22.33;;;14.57;;
5147;SDS011;2592;48.140;7.614;2022-12-16T13:27:45;24.00;;;17.20;;
5147;SDS011;2592;48.140;7.614;2022-12-16T13:30:29;25.27;;;16.40;;
5147;SDS011;2592;48.140;7.614;2022-12-16T13:33:22;23.90;;;17.43;;
5147;SDS011;2592;48.140;7.614;2022-12-16T13:36:08;20.17;;;14.00;;
5147;SDS011;2592;48.140;7.614;2022-12-16T13:38:53;27.07;;;16.83;;
5147;SDS011;2592;48.140;7.614;2022-12-16T13:41:53;20.67;;;16.10;;
5147;SDS011;2592;48.140;7.614;2022-12-16T13:47:58;17.77;;;13.90;;
5147;SDS011;2592;48.140;7.614;2022-12-16T13:50:42;27.90;;;23.17;;
5147;SDS011;2592;48.140;7.614;2022-12-16T13:53:29;24.03;;;17.33;;
5147;SDS011;2592;48.140;7.614;2022-12-16T13:56:14;26.63;;;18.00;;
5147;SDS011;2592;48.140;7.614;2022-12-16T13:58:58;19.10;;;14.33;;
5147;SDS011;2592;48.140;7.614;2022-12-16T14:01:46;19.13;;;13.40;;
5147;SDS011;2592;48.140;7.614;2022-12-16T14:04:32;18.13;;;14.30;;
5147;SDS011;2592;48.140;7.614;2022-12-16T14:07:16;21.03;;;15.50;;
5147;SDS011;2592;48.140;7.614;2022-12-16T14:10:04;24.13;;;16.40;;
5147;SDS011;2592;48.140;7.614;2022-12-16T14:12:54;25.60;;;18.20;;
5147;SDS011;2592;48.140;7.614;2022-12-16T14:15:44;25.87;;;18.87;;
5147;SDS011;2592;48.140;7.614;2022-12-16T14:18:31;28.50;;;20.37;;
5147;SDS011;2592;48.140;7.614;2022-12-16T14:21:19;27.97;;;19.60;;
5147;SDS011;2592;48.140;7.614;2022-12-16T14:24:06;22.77;;;17.70;;
5147;SDS011;2592;48.140;7.614;2022-12-16T14:26:54;25.60;;;18.30;;
5147;SDS011;2592;48.140;7.614;2022-12-16T14:29:41;38.53;;;26.27;;
5147;SDS011;2592;48.140;7.614;2022-12-16T14:32:27;30.17;;;21.10;;
5147;SDS011;2592;48.140;7.614;2022-12-16T14:35:11;18.10;;;14.70;;
5147;SDS011;2592;48.140;7.614;2022-12-16T14:37:55;21.07;;;15.80;;
5147;SDS011;2592;48.140;7.614;2022-12-16T14:40:40;25.13;;;16.30;;
5147;SDS011;2592;48.140;7.614;2022-12-16T14:43:25;23.30;;;15.90;;
5147;SDS011;2592;48.140;7.614;2022-12-16T14:46:16;23.40;;;14.83;;
5147;SDS011;2592;48.140;7.614;2022-12-16T14:49:11;25.97;;;18.50;;
5147;SDS011;2592;48.140;7.614;2022-12-16T14:51:58;29.83;;;21.00;;
5147;SDS011;2592;48.140;7.614;2022-12-16T14:54:41;22.80;;;17.07;;
5147;SDS011;2592;48.140;7.614;2022-12-16T14:57:27;28.90;;;17.33;;
5147;SDS011;2592;48.140;7.614;2022-12-16T15:00:14;22.67;;;15.20;;
5147;SDS011;2592;48.140;7.614;2022-12-16T15:02:59;22.50;;;16.60;;
5147;SDS011;2592;48.140;7.614;2022-12-16T15:05:47;20.90;;;16.50;;
5147;SDS011;2592;48.140;7.614;2022-12-16T15:08:32;24.40;;;18.57;;
5147;SDS011;2592;48.140;7.614;2022-12-16T15:11:17;21.13;;;15.63;;
5147;SDS011;2592;48.140;7.614;2022-12-16T15:14:02;23.57;;;16.87;;
5147;SDS011;2592;48.140;7.614;2022-12-16T15:16:48;24.13;;;15.70;;
5147;SDS011;2592;48.140;7.614;2022-12-16T15:19:35;19.83;;;15.30;;
5147;SDS011;2592;48.140;7.614;2022-12-16T15:22:20;20.60;;;16.23;;
5147;SDS011;2592;48.140;7.614;2022-12-16T15:25:04;23.93;;;18.40;;
5147;SDS011;2592;48.140;7.614;2022-12-16T15:27:52;25.50;;;17.80;;
5147;SDS011;2592;48.140;7.614;2022-12-16T15:30:36;24.43;;;18.37;;
5147;SDS011;2592;48.140;7.614;2022-12-16T15:33:22;25.10;;;19.43;;
5147;SDS011;2592;48.140;7.614;2022-12-16T15:36:10;26.30;;;18.80;;
5147;SDS011;2592;48.140;7.614;2022-12-16T15:38:57;26.87;;;17.87;;
5147;SDS011;2592;48.140;7.614;2022-12-16T15:41:45;23.43;;;18.80;;
5147;SDS011;2592;48.140;7.614;2022-12-16T15:44:29;23.37;;;19.33;;
5147;SDS011;2592;48.140;7.614;2022-12-16T15:47:18;25.10;;;18.63;;
5147;SDS011;2592;48.140;7.614;2022-12-16T15:50:04;27.40;;;20.03;;
5147;SDS011;2592;48.140;7.614;2022-12-16T15:52:49;30.77;;;20.73;;
5147;SDS011;2592;48.140;7.614;2022-12-16T15:55:33;32.93;;;22.30;;
5147;SDS011;2592;48.140;7.614;2022-12-16T15:58:21;38.57;;;25.43;;
5147;SDS011;2592;48.140;7.614;2022-12-16T16:01:06;33.77;;;21.47;;
5147;SDS011;2592;48.140;7.614;2022-12-16T16:03:50;35.43;;;23.40;;
5147;SDS011;2592;48.140;7.614;2022-12-16T16:06:36;30.53;;;21.83;;
5147;SDS011;2592;48.140;7.614;2022-12-16T16:09:20;24.33;;;19.73;;
5147;SDS011;2592;48.140;7.614;2022-12-16T16:12:04;25.30;;;19.00;;
5147;SDS011;2592;48.140;7.614;2022-12-16T16:14:48;27.10;;;20.83;;
5147;SDS011;2592;48.140;7.614;2022-12-16T16:17:32;26.03;;;20.47;;
5147;SDS011;2592;48.140;7.614;2022-12-16T16:20:16;30.43;;;23.47;;
5147;SDS011;2592;48.140;7.614;2022-12-16T16:23:02;25.63;;;19.43;;